Tug Reinauer Twins — WDF8591 — position and weather

sailwx.info

Track history (hours):
 
Tides and Currents Weather Stations Pressure Air Temp Water Temp Dewpoint Dewpoint Depression Visibility Wind Speed Wind Dir Waves Ship Positions

Tug Reinauer Twins

Owner: Reinauer Transportation Co., LLC, Staten Island, NY. More information available from US FCC via Universal Licensing System and Coast Guard Vessel Documentation Center.

Last reported at 2018-Feb-23 06:02 UTC. Time now 2018-Feb-23 16:10 UTC.
Position N 40°30' W 074°14'.

Length 150 m; draft 4.6 m.

Type: . MMSI: 367496470.

Date/timePositionNaut miles runAvg speedWind from/ knotsBaromVisibWave heightAir tempDewpointWater temp
2018-Feb-23 06:02N 40°30' W 074°14'2 6.2
2018-Feb-23 05:45N 40°30' W 074°12'2 6.9
2018-Feb-23 05:26N 40°30' W 074°09'3 7.2
2018-Feb-23 04:59N 40°29' W 074°05'2 4.7
2018-Feb-23 04:30N 40°31' W 074°03'3 6.2
2018-Feb-23 04:00N 40°34' W 074°02'3 6.0
2018-Feb-23 03:30N 40°37' W 074°03'1 1.6
2018-Feb-23 03:00N 40°37' W 074°03'3 5.2
2018-Feb-23 02:30N 40°40' W 074°03'3 5.6
2018-Feb-23 02:00N 40°42' W 074°00'4 8.0
2018-Feb-23 01:30N 40°45' W 073°58'4 8.1
2018-Feb-23 01:00N 40°48' W 073°53'3 6.7
2018-Feb-23 00:30N 40°48' W 073°49'2 5.0
2018-Feb-23 00:00N 40°50' W 073°47'4 6.4
2018-Feb-22 23:20N 40°53' W 073°43'2 2.3
2018-Feb-22 22:34N 40°54' W 073°41'0 1.9
2018-Feb-22 22:23N 40°54' W 073°41'2 0.0
2018-Feb-20 19:40N 40°55' W 073°38'2 8.2
2018-Feb-20 19:28N 40°54' W 073°40'4 8.5
2018-Feb-20 19:00N 40°52' W 073°45'4 8.3
2018-Feb-20 18:29N 40°48' W 073°47'4 8.5
2018-Feb-20 17:58N 40°48' W 073°53'3 7.1
2018-Feb-20 17:29N 40°46' W 073°57'4 8.0
2018-Feb-20 17:00N 40°43' W 073°59'3 6.6
2018-Feb-20 16:30N 40°40' W 074°02'2 4.1
2018-Feb-20 16:01N 40°39' W 074°03'3 6.2
2018-Feb-20 15:30N 40°35' W 074°02'4 7.3
2018-Feb-20 15:00N 40°32' W 074°01'4 7.2
2018-Feb-20 14:26N 40°30' W 073°56'2 4.6
2018-Feb-20 13:57N 40°28' W 073°54'1 2.8
2018-Feb-20 13:28N 40°27' W 073°54'3 5.8
2018-Feb-20 12:57N 40°24' W 073°54'22 8.2
2018-Feb-20 10:13N 40°02' W 073°55'11 9.1
2018-Feb-20 08:58N 39°50' W 073°56'4 9.3
2018-Feb-20 08:29N 39°46' W 073°57'5 9.1
2018-Feb-20 07:59N 39°42' W 073°58'5 9.1
2018-Feb-20 07:29N 39°37' W 074°00'6 9.3
2018-Feb-20 06:50N 39°32' W 074°04'3 9.3
2018-Feb-20 06:29N 39°29' W 074°06'5 9.0
2018-Feb-20 05:57N 39°25' W 074°09'36 9.5
2018-Feb-20 02:08N 38°59' W 074°41'22 5.6
2018-Feb-19 22:09N 39°02' W 075°10'210.3
2018-Feb-19 22:00N 39°04' W 075°10'510.4
2018-Feb-19 21:31N 39°08' W 075°14'510.5
2018-Feb-19 21:00N 39°13' W 075°18'510.2
2018-Feb-19 20:31N 39°17' W 075°22'5 9.8
2018-Feb-19 20:01N 39°20' W 075°26'4 8.3
2018-Feb-19 19:30N 39°23' W 075°29'4 7.7
2018-Feb-19 19:01N 39°26' W 075°33'4 7.3
2018-Feb-19 18:31N 39°30' W 075°33'4 7.0
2018-Feb-19 18:00N 39°33' W 075°33'3 5.8
2018-Feb-19 17:31N 39°35' W 075°36'0 0.0
2018-Feb-19 17:01N 39°35' W 075°36'0 0.0
2018-Feb-19 16:29N 39°35' W 075°36'0 0.0
2018-Feb-19 15:59N 39°35' W 075°36'0 0.0
2018-Feb-19 15:29N 39°35' W 075°36'0 0.0
2018-Feb-19 14:59N 39°35' W 075°36'0 0.0
2018-Feb-19 14:29N 39°35' W 075°36'0 0.0
2018-Feb-19 13:59N 39°35' W 075°36'0 0.0
2018-Feb-19 13:29N 39°35' W 075°36'0 0.0
2018-Feb-19 12:59N 39°35' W 075°36'0 0.0
2018-Feb-19 12:29N 39°35' W 075°36'0 0.0
2018-Feb-19 11:59N 39°35' W 075°36'0 0.0
2018-Feb-19 11:29N 39°35' W 075°36'0 0.0
2018-Feb-19 10:59N 39°35' W 075°36'0 0.0
2018-Feb-19 10:29N 39°35' W 075°36'0 0.0
2018-Feb-19 09:59N 39°35' W 075°36'0 0.0
2018-Feb-19 09:29N 39°35' W 075°36'0 0.0
2018-Feb-19 08:59N 39°35' W 075°36'0 0.0
2018-Feb-19 08:29N 39°35' W 075°36'0 0.0
2018-Feb-19 07:59N 39°35' W 075°36'0 0.0
2018-Feb-19 07:29N 39°35' W 075°36'0 0.0
2018-Feb-19 06:59N 39°35' W 075°36'0 0.0
2018-Feb-19 06:29N 39°35' W 075°36'0 0.0
2018-Feb-19 05:59N 39°35' W 075°36'0 0.0
2018-Feb-19 05:29N 39°35' W 075°36'0 0.0
2018-Feb-19 04:59N 39°35' W 075°36'0 0.0
2018-Feb-19 04:29N 39°35' W 075°36'0 0.0
2018-Feb-19 03:59N 39°35' W 075°36'0 0.0
2018-Feb-19 03:29N 39°35' W 075°36'0 0.0
2018-Feb-19 02:59N 39°35' W 075°36'0 0.0
2018-Feb-19 02:29N 39°35' W 075°36'0 0.0
2018-Feb-19 01:59N 39°35' W 075°36'0 0.0
2018-Feb-19 01:29N 39°35' W 075°36'0 0.0
2018-Feb-19 00:59N 39°35' W 075°36'0 0.0
2018-Feb-19 00:29N 39°35' W 075°36'0 0.0
2018-Feb-18 23:59N 39°35' W 075°36'0 0.0
2018-Feb-18 23:29N 39°35' W 075°36'0 0.0
2018-Feb-18 22:59N 39°35' W 075°36'0 0.0
2018-Feb-18 22:29N 39°35' W 075°36'0 0.0
2018-Feb-18 21:59N 39°35' W 075°36'0 0.0
2018-Feb-18 21:29N 39°35' W 075°36'0 0.0
2018-Feb-18 20:59N 39°35' W 075°36'0 0.0
2018-Feb-18 20:29N 39°35' W 075°36'0 0.0
2018-Feb-18 19:59N 39°35' W 075°36'0 0.0
2018-Feb-18 19:29N 39°35' W 075°36'0 0.0
2018-Feb-18 18:59N 39°35' W 075°36'0 0.0
2018-Feb-18 18:29N 39°35' W 075°36'0 0.0
2018-Feb-18 17:59N 39°35' W 075°36'0 0.0
2018-Feb-18 17:29N 39°35' W 075°36'0 0.0
2018-Feb-18 16:59N 39°35' W 075°36'0 0.0
2018-Feb-18 16:29N 39°35' W 075°36'0 0.0
2018-Feb-18 15:59N 39°35' W 075°36'0 0.0
2018-Feb-18 15:29N 39°35' W 075°36'0 0.0
2018-Feb-18 15:00N 39°35' W 075°36'2 3.7
2018-Feb-18 14:30N 39°34' W 075°34'5 9.4
2018-Feb-18 14:00N 39°29' W 075°34'5 9.2
2018-Feb-18 13:30N 39°25' W 075°31'5 9.1
2018-Feb-18 13:01N 39°22' W 075°27'4 8.8
2018-Feb-18 12:30N 39°19' W 075°23'4 8.1
2018-Feb-18 12:00N 39°16' W 075°20'4 7.1
2018-Feb-18 11:31N 39°13' W 075°17'4 7.1
2018-Feb-18 11:01N 39°10' W 075°15'4 8.2
2018-Feb-18 10:30N 39°06' W 075°12'4 8.1
2018-Feb-18 10:00N 39°03' W 075°10'4 8.3
2018-Feb-18 09:30N 38°59' W 075°08'7 8.1
2018-Feb-18 08:41N 38°53' W 075°04'4 7.9
2018-Feb-18 08:11N 38°49' W 075°02'62 9.1
2018-Feb-18 01:21N 39°34' W 074°06'4 9.9
2018-Feb-18 00:57N 39°37' W 074°04'4 9.7
2018-Feb-18 00:29N 39°41' W 074°01'5 9.6
2018-Feb-18 00:00N 39°46' W 073°59'38 9.7
2018-Feb-17 20:06N 40°23' W 073°54'110.1
2018-Feb-17 19:58N 40°25' W 073°53'510.0
2018-Feb-17 19:28N 40°29' W 073°55'511.6
2018-Feb-17 19:00N 40°32' W 074°01'5 9.9
2018-Feb-17 18:30N 40°37' W 074°03'3 5.2
2018-Feb-17 18:00N 40°39' W 074°03'0 0.4
2018-Feb-17 17:30N 40°40' W 074°03'0 0.9
2018-Feb-17 17:00N 40°40' W 074°02'4 7.5
2018-Feb-17 16:30N 40°43' W 073°59'5 9.1
2018-Feb-17 16:00N 40°47' W 073°56'4 8.0
2018-Feb-17 15:30N 40°48' W 073°51'4 7.5
2018-Feb-17 14:59N 40°50' W 073°47'4510.0
2018-Feb-17 10:26N 41°04' W 072°50'4 9.6
2018-Feb-17 10:00N 41°05' W 072°44'5 9.2
2018-Feb-17 09:30N 41°06' W 072°38'4 8.7
2018-Feb-17 09:00N 41°07' W 072°33'4 8.5
2018-Feb-17 08:30N 41°09' W 072°27'4 7.7
2018-Feb-17 07:59N 41°10' W 072°22'3 7.3
2018-Feb-17 07:30N 41°12' W 072°18'4 7.7
2018-Feb-17 07:00N 41°14' W 072°14'4 8.2
2018-Feb-17 06:30N 41°14' W 072°08'91 7.7
2018-Feb-16 18:43N 42°08' W 070°30'2 9.5
2018-Feb-16 18:30N 42°10' W 070°31'5 9.5
2018-Feb-16 18:00N 42°15' W 070°31'5 9.6
2018-Feb-16 17:30N 42°20' W 070°31'5 9.7
2018-Feb-16 17:00N 42°25' W 070°31'5 9.5
2018-Feb-16 16:30N 42°29' W 070°31'5 9.7
2018-Feb-16 16:00N 42°34' W 070°30'5 9.9
2018-Feb-16 15:30N 42°39' W 070°30'5 9.7
2018-Feb-16 15:00N 42°43' W 070°33'5 9.7
2018-Feb-16 14:30N 42°48' W 070°35'5 9.7
2018-Feb-16 14:00N 42°53' W 070°37'5 9.6
2018-Feb-16 13:30N 42°57' W 070°40'5 9.7
2018-Feb-16 13:00N 43°02' W 070°41'0 0.0
2018-Feb-14 15:56N 43°02' W 070°41'4 9.8
2018-Feb-14 15:30N 42°58' W 070°40'5 9.8
2018-Feb-14 15:00N 42°53' W 070°38'5 9.5
2018-Feb-14 14:30N 42°49' W 070°35'5 9.3
2018-Feb-14 14:00N 42°45' W 070°33'5 9.4
2018-Feb-14 13:30N 42°40' W 070°31'5 9.3
2018-Feb-14 13:00N 42°35' W 070°30'5 9.0
2018-Feb-14 12:30N 42°31' W 070°30'5 9.1
2018-Feb-14 12:00N 42°26' W 070°30'4 9.1
2018-Feb-14 11:31N 42°22' W 070°30'5 9.2
2018-Feb-14 11:00N 42°17' W 070°30'5 9.3
2018-Feb-14 10:30N 42°13' W 070°30'5 9.2
2018-Feb-14 10:00N 42°08' W 070°30'5 9.2
2018-Feb-14 09:26N 42°03' W 070°29'4 9.2
2018-Feb-14 09:00N 41°59' W 070°28'165 7.9
2018-Feb-13 12:11N 40°32' W 073°34'2 8.8
2018-Feb-13 11:59N 40°32' W 073°37'5 8.6
2018-Feb-13 11:21N 40°31' W 073°43'3 8.4
2018-Feb-13 10:59N 40°30' W 073°47'4 8.2
2018-Feb-13 10:30N 40°28' W 073°52'4 7.9
2018-Feb-13 10:00N 40°24' W 073°53'31 8.4
2018-Feb-13 06:19N 39°53' W 073°57'  
Track history (hours):
 
Tides and Currents Weather Stations Pressure Air Temp Water Temp Dewpoint Dewpoint Depression Visibility Wind Speed Wind Dir Waves Ship Positions

Tug Reinauer Twins

Owner: Reinauer Transportation Co., LLC, Staten Island, NY. More information available from US FCC via Universal Licensing System and Coast Guard Vessel Documentation Center.

Last reported at 2018-Feb-23 06:02 UTC. Time now 2018-Feb-23 16:10 UTC.
Position N 40°30' W 074°14'.

Length 150 m; draft 4.6 m.

Type: . MMSI: 367496470.

Date/timePositionNaut miles runAvg speedWind from/ knotsBaromVisibWave heightAir tempDewpointWater temp
2018-Feb-23 06:02N 40°30' W 074°14'2 6.2
2018-Feb-23 05:45N 40°30' W 074°12'2 6.9
2018-Feb-23 05:26N 40°30' W 074°09'3 7.2
2018-Feb-23 04:59N 40°29' W 074°05'2 4.7
2018-Feb-23 04:30N 40°31' W 074°03'3 6.2
2018-Feb-23 04:00N 40°34' W 074°02'3 6.0
2018-Feb-23 03:30N 40°37' W 074°03'1 1.6
2018-Feb-23 03:00N 40°37' W 074°03'3 5.2
2018-Feb-23 02:30N 40°40' W 074°03'3 5.6
2018-Feb-23 02:00N 40°42' W 074°00'4 8.0
2018-Feb-23 01:30N 40°45' W 073°58'4 8.1
2018-Feb-23 01:00N 40°48' W 073°53'3 6.7
2018-Feb-23 00:30N 40°48' W 073°49'2 5.0
2018-Feb-23 00:00N 40°50' W 073°47'4 6.4
2018-Feb-22 23:20N 40°53' W 073°43'2 2.3
2018-Feb-22 22:34N 40°54' W 073°41'0 1.9
2018-Feb-22 22:23N 40°54' W 073°41'2 0.0
2018-Feb-20 19:40N 40°55' W 073°38'2 8.2
2018-Feb-20 19:28N 40°54' W 073°40'4 8.5
2018-Feb-20 19:00N 40°52' W 073°45'4 8.3
2018-Feb-20 18:29N 40°48' W 073°47'4 8.5
2018-Feb-20 17:58N 40°48' W 073°53'3 7.1
2018-Feb-20 17:29N 40°46' W 073°57'4 8.0
2018-Feb-20 17:00N 40°43' W 073°59'3 6.6
2018-Feb-20 16:30N 40°40' W 074°02'2 4.1
2018-Feb-20 16:01N 40°39' W 074°03'3 6.2
2018-Feb-20 15:30N 40°35' W 074°02'4 7.3
2018-Feb-20 15:00N 40°32' W 074°01'4 7.2
2018-Feb-20 14:26N 40°30' W 073°56'2 4.6
2018-Feb-20 13:57N 40°28' W 073°54'1 2.8
2018-Feb-20 13:28N 40°27' W 073°54'3 5.8
2018-Feb-20 12:57N 40°24' W 073°54'22 8.2
2018-Feb-20 10:13N 40°02' W 073°55'11 9.1
2018-Feb-20 08:58N 39°50' W 073°56'4 9.3
2018-Feb-20 08:29N 39°46' W 073°57'5 9.1
2018-Feb-20 07:59N 39°42' W 073°58'5 9.1
2018-Feb-20 07:29N 39°37' W 074°00'6 9.3
2018-Feb-20 06:50N 39°32' W 074°04'3 9.3
2018-Feb-20 06:29N 39°29' W 074°06'5 9.0
2018-Feb-20 05:57N 39°25' W 074°09'36 9.5
2018-Feb-20 02:08N 38°59' W 074°41'22 5.6
2018-Feb-19 22:09N 39°02' W 075°10'210.3
2018-Feb-19 22:00N 39°04' W 075°10'510.4
2018-Feb-19 21:31N 39°08' W 075°14'510.5
2018-Feb-19 21:00N 39°13' W 075°18'510.2
2018-Feb-19 20:31N 39°17' W 075°22'5 9.8
2018-Feb-19 20:01N 39°20' W 075°26'4 8.3
2018-Feb-19 19:30N 39°23' W 075°29'4 7.7
2018-Feb-19 19:01N 39°26' W 075°33'4 7.3
2018-Feb-19 18:31N 39°30' W 075°33'4 7.0
2018-Feb-19 18:00N 39°33' W 075°33'3 5.8
2018-Feb-19 17:31N 39°35' W 075°36'0 0.0
2018-Feb-19 17:01N 39°35' W 075°36'0 0.0
2018-Feb-19 16:29N 39°35' W 075°36'0 0.0
2018-Feb-19 15:59N 39°35' W 075°36'0 0.0
2018-Feb-19 15:29N 39°35' W 075°36'0 0.0
2018-Feb-19 14:59N 39°35' W 075°36'0 0.0
2018-Feb-19 14:29N 39°35' W 075°36'0 0.0
2018-Feb-19 13:59N 39°35' W 075°36'0 0.0
2018-Feb-19 13:29N 39°35' W 075°36'0 0.0
2018-Feb-19 12:59N 39°35' W 075°36'0 0.0
2018-Feb-19 12:29N 39°35' W 075°36'0 0.0
2018-Feb-19 11:59N 39°35' W 075°36'0 0.0
2018-Feb-19 11:29N 39°35' W 075°36'0 0.0
2018-Feb-19 10:59N 39°35' W 075°36'0 0.0
2018-Feb-19 10:29N 39°35' W 075°36'0 0.0
2018-Feb-19 09:59N 39°35' W 075°36'0 0.0
2018-Feb-19 09:29N 39°35' W 075°36'0 0.0
2018-Feb-19 08:59N 39°35' W 075°36'0 0.0
2018-Feb-19 08:29N 39°35' W 075°36'0 0.0
2018-Feb-19 07:59N 39°35' W 075°36'0 0.0
2018-Feb-19 07:29N 39°35' W 075°36'0 0.0
2018-Feb-19 06:59N 39°35' W 075°36'0 0.0
2018-Feb-19 06:29N 39°35' W 075°36'0 0.0
2018-Feb-19 05:59N 39°35' W 075°36'0 0.0
2018-Feb-19 05:29N 39°35' W 075°36'0 0.0
2018-Feb-19 04:59N 39°35' W 075°36'0 0.0
2018-Feb-19 04:29N 39°35' W 075°36'0 0.0
2018-Feb-19 03:59N 39°35' W 075°36'0 0.0
2018-Feb-19 03:29N 39°35' W 075°36'0 0.0
2018-Feb-19 02:59N 39°35' W 075°36'0 0.0
2018-Feb-19 02:29N 39°35' W 075°36'0 0.0
2018-Feb-19 01:59N 39°35' W 075°36'0 0.0
2018-Feb-19 01:29N 39°35' W 075°36'0 0.0
2018-Feb-19 00:59N 39°35' W 075°36'0 0.0
2018-Feb-19 00:29N 39°35' W 075°36'0 0.0
2018-Feb-18 23:59N 39°35' W 075°36'0 0.0
2018-Feb-18 23:29N 39°35' W 075°36'0 0.0
2018-Feb-18 22:59N 39°35' W 075°36'0 0.0
2018-Feb-18 22:29N 39°35' W 075°36'0 0.0
2018-Feb-18 21:59N 39°35' W 075°36'0 0.0
2018-Feb-18 21:29N 39°35' W 075°36'0 0.0
2018-Feb-18 20:59N 39°35' W 075°36'0 0.0
2018-Feb-18 20:29N 39°35' W 075°36'0 0.0
2018-Feb-18 19:59N 39°35' W 075°36'0 0.0
2018-Feb-18 19:29N 39°35' W 075°36'0 0.0
2018-Feb-18 18:59N 39°35' W 075°36'0 0.0
2018-Feb-18 18:29N 39°35' W 075°36'0 0.0
2018-Feb-18 17:59N 39°35' W 075°36'0 0.0
2018-Feb-18 17:29N 39°35' W 075°36'0 0.0
2018-Feb-18 16:59N 39°35' W 075°36'0 0.0
2018-Feb-18 16:29N 39°35' W 075°36'0 0.0
2018-Feb-18 15:59N 39°35' W 075°36'0 0.0
2018-Feb-18 15:29N 39°35' W 075°36'0 0.0
2018-Feb-18 15:00N 39°35' W 075°36'2 3.7
2018-Feb-18 14:30N 39°34' W 075°34'5 9.4
2018-Feb-18 14:00N 39°29' W 075°34'5 9.2
2018-Feb-18 13:30N 39°25' W 075°31'5 9.1
2018-Feb-18 13:01N 39°22' W 075°27'4 8.8
2018-Feb-18 12:30N 39°19' W 075°23'4 8.1
2018-Feb-18 12:00N 39°16' W 075°20'4 7.1
2018-Feb-18 11:31N 39°13' W 075°17'4 7.1
2018-Feb-18 11:01N 39°10' W 075°15'4 8.2
2018-Feb-18 10:30N 39°06' W 075°12'4 8.1
2018-Feb-18 10:00N 39°03' W 075°10'4 8.3
2018-Feb-18 09:30N 38°59' W 075°08'7 8.1
2018-Feb-18 08:41N 38°53' W 075°04'4 7.9
2018-Feb-18 08:11N 38°49' W 075°02'62 9.1
2018-Feb-18 01:21N 39°34' W 074°06'4 9.9
2018-Feb-18 00:57N 39°37' W 074°04'4 9.7
2018-Feb-18 00:29N 39°41' W 074°01'5 9.6
2018-Feb-18 00:00N 39°46' W 073°59'38 9.7
2018-Feb-17 20:06N 40°23' W 073°54'110.1
2018-Feb-17 19:58N 40°25' W 073°53'510.0
2018-Feb-17 19:28N 40°29' W 073°55'511.6
2018-Feb-17 19:00N 40°32' W 074°01'5 9.9
2018-Feb-17 18:30N 40°37' W 074°03'3 5.2
2018-Feb-17 18:00N 40°39' W 074°03'0 0.4
2018-Feb-17 17:30N 40°40' W 074°03'0 0.9
2018-Feb-17 17:00N 40°40' W 074°02'4 7.5
2018-Feb-17 16:30N 40°43' W 073°59'5 9.1
2018-Feb-17 16:00N 40°47' W 073°56'4 8.0
2018-Feb-17 15:30N 40°48' W 073°51'4 7.5
2018-Feb-17 14:59N 40°50' W 073°47'4510.0
2018-Feb-17 10:26N 41°04' W 072°50'4 9.6
2018-Feb-17 10:00N 41°05' W 072°44'5 9.2
2018-Feb-17 09:30N 41°06' W 072°38'4 8.7
2018-Feb-17 09:00N 41°07' W 072°33'4 8.5
2018-Feb-17 08:30N 41°09' W 072°27'4 7.7
2018-Feb-17 07:59N 41°10' W 072°22'3 7.3
2018-Feb-17 07:30N 41°12' W 072°18'4 7.7
2018-Feb-17 07:00N 41°14' W 072°14'4 8.2
2018-Feb-17 06:30N 41°14' W 072°08'91 7.7
2018-Feb-16 18:43N 42°08' W 070°30'2 9.5
2018-Feb-16 18:30N 42°10' W 070°31'5 9.5
2018-Feb-16 18:00N 42°15' W 070°31'5 9.6
2018-Feb-16 17:30N 42°20' W 070°31'5 9.7
2018-Feb-16 17:00N 42°25' W 070°31'5 9.5
2018-Feb-16 16:30N 42°29' W 070°31'5 9.7
2018-Feb-16 16:00N 42°34' W 070°30'5 9.9
2018-Feb-16 15:30N 42°39' W 070°30'5 9.7
2018-Feb-16 15:00N 42°43' W 070°33'5 9.7
2018-Feb-16 14:30N 42°48' W 070°35'5 9.7
2018-Feb-16 14:00N 42°53' W 070°37'5 9.6
2018-Feb-16 13:30N 42°57' W 070°40'5 9.7
2018-Feb-16 13:00N 43°02' W 070°41'0 0.0
2018-Feb-14 15:56N 43°02' W 070°41'4 9.8
2018-Feb-14 15:30N 42°58' W 070°40'5 9.8
2018-Feb-14 15:00N 42°53' W 070°38'5 9.5
2018-Feb-14 14:30N 42°49' W 070°35'5 9.3
2018-Feb-14 14:00N 42°45' W 070°33'5 9.4
2018-Feb-14 13:30N 42°40' W 070°31'5 9.3
2018-Feb-14 13:00N 42°35' W 070°30'5 9.0
2018-Feb-14 12:30N 42°31' W 070°30'5 9.1
2018-Feb-14 12:00N 42°26' W 070°30'4 9.1
2018-Feb-14 11:31N 42°22' W 070°30'5 9.2
2018-Feb-14 11:00N 42°17' W 070°30'5 9.3
2018-Feb-14 10:30N 42°13' W 070°30'5 9.2
2018-Feb-14 10:00N 42°08' W 070°30'5 9.2
2018-Feb-14 09:26N 42°03' W 070°29'4 9.2
2018-Feb-14 09:00N 41°59' W 070°28'165 7.9
2018-Feb-13 12:11N 40°32' W 073°34'2 8.8
2018-Feb-13 11:59N 40°32' W 073°37'5 8.6
2018-Feb-13 11:21N 40°31' W 073°43'3 8.4
2018-Feb-13 10:59N 40°30' W 073°47'4 8.2
2018-Feb-13 10:30N 40°28' W 073°52'4 7.9
2018-Feb-13 10:00N 40°24' W 073°53'31 8.4
2018-Feb-13 06:19N 39°53' W 073°57'  

Dump ship's entire track history